Ευχαριστούμε που συμβάλλετε στη διατήρηση της σελίδας μας.

Thank you for your donations, it really helps to maintain the page.

Meteo Stats And More

Meteo Stats And More






Fire Weather Index (FWI)

Φωνητική Πρόγνωση Καιρού : 

Romanos Cam more information Romanos Cam


Istioploikos Omilos Patras more information Istioploikos Omilos Patras


Thunder radar more information blitzortung!


Rain radar more information rain snow radar



Rain From: 17-12-2017 08:00 Until: 18-12-2017 20:00 warning for: Rain Level: Yellow info button

Nearby METAR Reports

  
LGRX - Araxos (civ/Afb), Greece
Distance from station: WSW 30km
Updated: 18-12-2017 10:50
Mostly Cloudy
Mostly Cloudy  
 Wind from calm
Wind: Calm
Temperature:  11°C
Dew Point:  9°C
Humidity:  88%
Barometer:  1016 hPa
Clouds:  Mostly Cloudy
Visibility:  10 km
Cloud details:  Partly Cloudy 610 m
Mostly Cloudy 2134 m
2017/12/18 08:50 LGRX 180850Z 00000KT 9999 SCT020 BKN070 11/09 Q1016
LGAD - Andravida (civ/A, Greece
Distance from station: SW 55km
Updated: 18-12-2017 10:50
Partly Cloudy
Partly Cloudy  
 Wind from SSE
Wind: SSE 11 km/h
Temperature:  12°C
Dew Point:  7°C
Humidity:  72%
Barometer:  1016 hPa
Clouds:  Partly Cloudy
Visibility:  10 km
Cloud details:  Partly Cloudy 610 m
Partly Cloudy 2438 m
2017/12/18 08:50 LGAD 180850Z 16006KT 9999 SCT020 SCT080 12/07 Q1016
LGZA - Zakinthos Airpor, Greece
Distance from station: SW 95km
Updated: 18-12-2017 10:50
Partly Cloudy
Partly Cloudy  
 Wind from SE
Wind: SE 9 km/h
Temperature:  11°C
Dew Point:  9°C
Humidity:  88%
Barometer:  1016 hPa
Clouds:  Partly Cloudy
Visibility:  10 km
Cloud details:  Partly Cloudy 610 m
Partly Cloudy 2134 m
2017/12/18 08:50 LGZA 180850Z 14005KT 9999 SCT020 SCT070 11/09 Q1016
LGKF - Kefallinia, Greece
Distance from station: W 110km
Updated: 18-12-2017 10:50
Light rain, Mostly Cloudy
Light rain, Mostly Cloudy  
 Wind from calm
Wind: Calm
Temperature:  10°C
Dew Point:  9°C
Humidity:  94%
Barometer:  1016 hPa
Summary:  Light Rain
Clouds:  Mostly Cloudy
Visibility:  10 km
Cloud details:  Few Clouds 488 m
Partly Cloudy 610 m
Mostly Cloudy 2134 m
2017/12/18 08:50 LGKF 180850Z 00000KT 9999 -RA FEW016 SCT020 BKN070 10/09 Q1016
LGPZ - Preveza/Aktion, Greece
Distance from station: NW 114km
Updated: 18-12-2017 10:50
Light rain, Partly cloudy
Light rain, Partly cloudy  
 Wind from N
Wind: N 11 km/h
Temperature:  9°C
Wind Chill:  7°C
Dew Point:  8°C
Humidity:  94%
Barometer:  1017 hPa
Summary:  Light Rain
Clouds:  Partly Cloudy
Visibility:  9 km
Cloud details:  Few Clouds 549 m
Partly Cloudy 762 m
2017/12/18 08:50 LGPZ 180850Z 36006KT 9000 -RA FEW018 SCT025 09/08 Q1017
LGKL - Kalamata (hel-Af, Greece
Distance from station: S 132km
Updated: 18-12-2017 10:50
Mostly Cloudy
Mostly Cloudy  
 Wind from ESE
Wind: ESE 7 km/h
Temperature:  14°C
Dew Point:  7°C
Humidity:  63%
Barometer:  1017 hPa
Clouds:  Mostly Cloudy
Visibility:  10 km
Cloud details:  Partly Cloudy 762 m
Mostly Cloudy 2438 m
2017/12/18 08:50 LGKL 180850Z 11004KT 9999 SCT025 BKN080 14/07 Q1017
LGBL - Nea Anchialos, Greece
Distance from station: NE 142km
Updated: 18-12-2017 10:50
Mostly Cloudy
Mostly Cloudy  
 Wind from calm
Wind: Calm
Temperature:  11°C
Dew Point:  7°C
Humidity:  77%
Barometer:  1016 hPa
Clouds:  Mostly Cloudy
Visibility:  10 km
Cloud details:  Partly Cloudy 914 m
Mostly Cloudy 2438 m
2017/12/18 08:50 LGBL 180850Z 00000KT 9999 SCT030 BKN080 11/07 Q1016
LGEL - Elefsis (hel-Afb, Greece
Distance from station: E 158km
Updated: 18-12-2017 10:50
Partly Cloudy
Partly Cloudy  
 Wind from calm
Wind: Calm
Temperature:  12°C
Dew Point:  6°C
Humidity:  67%
Barometer:  1016 hPa
Clouds:  Partly Cloudy
Visibility:  10 km
Cloud details:  Few Clouds 762 m
Partly Cloudy 2134 m
2017/12/18 08:50 LGEL 180850Z 00000KT 9999 FEW025 SCT070 12/06 Q1016
LGIO - Ioannina, Greece
Distance from station: NNW 181km
Updated: 18-12-2017 10:50
Overcast
Overcast  
 Wind from varies
Wind: varies 0 km/h
Temperature:  5°C
Dew Point:  5°C
Humidity:  100%
Barometer:  1015 hPa
Clouds:  Overcast
Visibility:  10 km
Cloud details:  Few Clouds 366 m
Partly Cloudy 914 m
Overcast 1829 m
2017/12/18 08:50 LGIO 180850Z /////KT 9999 FEW012 SCT030 OVC060 05/05 Q1015
LGSK - Skiathos Island, Greece
Distance from station: NE 185km
Updated: 18-12-2017 09:50
NOT Current
Partly Cloudy
Partly Cloudy  
 Wind from N
Wind: N 13 km/h
Temperature:  10°C
Wind Chill:  8°C
Dew Point:  4°C
Humidity:  67%
Barometer:  1016 hPa
Clouds:  Partly Cloudy
Visibility:  10 km
Cloud details:  Few Clouds 366 m
Partly Cloudy 762 m
2017/12/18 07:50 LGSK 180750Z 36007KT 9999 FEW012 SCT025 10/04 Q1016
LGAV - Athens/Elef-Ven, Greece
Distance from station: E 195km
Updated: 18-12-2017 10:20
Few Clouds
Few Clouds  
 Wind from varies
Wind: varies 2 km/h
Temperature:  12°C
Dew Point:  4°C
Humidity:  58%
Barometer:  1017 hPa
Clouds:  Few Clouds
Visibility:  10 km
Cloud details:  Few Clouds 914 m
2017/12/18 08:20 LGAV 180820Z VRB01KT 9999 FEW030 12/04 Q1017 NOSIG
LGKR - Ioannis Kapodist, Greece
Distance from station: NW 221km
Updated: 18-12-2017 10:20
Mostly Cloudy
Mostly Cloudy  
 Wind from calm
Wind: Calm
Temperature:  9°C
Dew Point:  7°C
Humidity:  87%
Barometer:  1016 hPa
Clouds:  Mostly Cloudy
Visibility:  10 km
Cloud details:  Few Clouds 610 m
Partly Cloudy 914 m
Mostly Cloudy 2438 m
2017/12/18 08:20 LGKR 180820Z 00000KT 9999 FEW020TCU SCT030 BKN080 09/07 Q1016 NOSIG

Script developed by  Saratoga-weather.org Adapted for the template by  Weerstation Leuven

You find our weather info also at:


European Weather Network

WeatherCloud

Weather Underground

Hellas Meteo Network

AWEKAS

HAMweather, WeatherForYou, PWS Weather